sensor_id;sensor_type;location;lat;lon;timestamp;P1;durP1;ratioP1;P2;durP2;ratioP2
37379;SDS011;23252;-33.992;18.480;2023-08-06T00:01:25;17.70;;;7.60;;
37379;SDS011;23252;-33.992;18.480;2023-08-06T00:03:52;25.38;;;7.65;;
37379;SDS011;23252;-33.992;18.480;2023-08-06T00:06:18;17.38;;;6.43;;
37379;SDS011;23252;-33.992;18.480;2023-08-06T00:08:45;37.80;;;8.10;;
37379;SDS011;23252;-33.992;18.480;2023-08-06T00:11:11;18.70;;;7.00;;
37379;SDS011;23252;-33.992;18.480;2023-08-06T00:13:38;21.77;;;7.70;;
37379;SDS011;23252;-33.992;18.480;2023-08-06T00:16:12;25.42;;;8.02;;
37379;SDS011;23252;-33.992;18.480;2023-08-06T00:18:39;18.45;;;7.18;;
37379;SDS011;23252;-33.992;18.480;2023-08-06T00:21:06;19.45;;;8.43;;
37379;SDS011;23252;-33.992;18.480;2023-08-06T00:23:33;20.57;;;8.57;;
37379;SDS011;23252;-33.992;18.480;2023-08-06T00:26:00;17.35;;;8.05;;
37379;SDS011;23252;-33.992;18.480;2023-08-06T00:28:26;25.52;;;9.50;;
37379;SDS011;23252;-33.992;18.480;2023-08-06T00:30:53;24.63;;;9.15;;
37379;SDS011;23252;-33.992;18.480;2023-08-06T00:33:23;19.40;;;8.15;;
37379;SDS011;23252;-33.992;18.480;2023-08-06T00:35:50;20.67;;;8.15;;
37379;SDS011;23252;-33.992;18.480;2023-08-06T00:38:16;24.23;;;9.23;;
37379;SDS011;23252;-33.992;18.480;2023-08-06T00:40:43;28.60;;;9.05;;
37379;SDS011;23252;-33.992;18.480;2023-08-06T00:43:09;24.40;;;9.03;;
37379;SDS011;23252;-33.992;18.480;2023-08-06T00:45:36;26.33;;;8.82;;
37379;SDS011;23252;-33.992;18.480;2023-08-06T00:48:03;30.23;;;9.02;;
37379;SDS011;23252;-33.992;18.480;2023-08-06T00:50:32;28.30;;;9.75;;
37379;SDS011;23252;-33.992;18.480;2023-08-06T00:52:58;22.52;;;8.20;;
37379;SDS011;23252;-33.992;18.480;2023-08-06T00:55:25;29.45;;;8.23;;
37379;SDS011;23252;-33.992;18.480;2023-08-06T00:57:52;23.90;;;8.83;;
37379;SDS011;23252;-33.992;18.480;2023-08-06T01:00:21;25.23;;;9.45;;
37379;SDS011;23252;-33.992;18.480;2023-08-06T01:02:49;36.72;;;10.35;;
37379;SDS011;23252;-33.992;18.480;2023-08-06T01:05:16;23.58;;;10.02;;
37379;SDS011;23252;-33.992;18.480;2023-08-06T01:10:42;38.25;;;11.07;;
37379;SDS011;23252;-33.992;18.480;2023-08-06T01:16:20;37.25;;;11.68;;
37379;SDS011;23252;-33.992;18.480;2023-08-06T01:18:49;34.03;;;11.45;;
37379;SDS011;23252;-33.992;18.480;2023-08-06T01:21:16;36.50;;;11.67;;
37379;SDS011;23252;-33.992;18.480;2023-08-06T01:23:43;29.77;;;10.60;;
37379;SDS011;23252;-33.992;18.480;2023-08-06T01:31:39;33.28;;;11.15;;
37379;SDS011;23252;-33.992;18.480;2023-08-06T01:34:20;25.80;;;10.13;;
37379;SDS011;23252;-33.992;18.480;2023-08-06T01:36:48;30.58;;;11.45;;
37379;SDS011;23252;-33.992;18.480;2023-08-06T01:39:16;33.28;;;12.32;;
37379;SDS011;23252;-33.992;18.480;2023-08-06T01:41:46;39.72;;;13.27;;
37379;SDS011;23252;-33.992;18.480;2023-08-06T01:44:14;31.77;;;12.05;;
37379;SDS011;23252;-33.992;18.480;2023-08-06T01:46:41;41.50;;;12.98;;
37379;SDS011;23252;-33.992;18.480;2023-08-06T01:49:08;38.33;;;11.63;;
37379;SDS011;23252;-33.992;18.480;2023-08-06T01:51:34;35.50;;;11.43;;
37379;SDS011;23252;-33.992;18.480;2023-08-06T01:54:01;29.80;;;11.45;;
37379;SDS011;23252;-33.992;18.480;2023-08-06T01:56:27;33.78;;;11.45;;
37379;SDS011;23252;-33.992;18.480;2023-08-06T01:58:54;42.60;;;12.70;;
37379;SDS011;23252;-33.992;18.480;2023-08-06T02:01:20;42.13;;;13.10;;
37379;SDS011;23252;-33.992;18.480;2023-08-06T02:03:47;40.42;;;14.25;;
37379;SDS011;23252;-33.992;18.480;2023-08-06T02:06:13;44.42;;;14.20;;
37379;SDS011;23252;-33.992;18.480;2023-08-06T02:08:40;41.75;;;12.98;;
37379;SDS011;23252;-33.992;18.480;2023-08-06T02:11:06;40.65;;;14.73;;
37379;SDS011;23252;-33.992;18.480;2023-08-06T02:13:33;39.25;;;13.48;;
37379;SDS011;23252;-33.992;18.480;2023-08-06T02:15:59;32.88;;;14.05;;
37379;SDS011;23252;-33.992;18.480;2023-08-06T02:18:25;42.92;;;15.70;;
37379;SDS011;23252;-33.992;18.480;2023-08-06T02:20:56;46.22;;;17.35;;
37379;SDS011;23252;-33.992;18.480;2023-08-06T02:23:25;61.72;;;17.45;;
37379;SDS011;23252;-33.992;18.480;2023-08-06T02:25:59;49.03;;;15.88;;
37379;SDS011;23252;-33.992;18.480;2023-08-06T02:30:56;46.58;;;15.95;;
37379;SDS011;23252;-33.992;18.480;2023-08-06T02:33:23;43.40;;;16.35;;
37379;SDS011;23252;-33.992;18.480;2023-08-06T02:35:49;45.50;;;15.20;;
37379;SDS011;23252;-33.992;18.480;2023-08-06T02:38:16;37.03;;;15.95;;
37379;SDS011;23252;-33.992;18.480;2023-08-06T02:40:43;37.70;;;15.60;;
37379;SDS011;23252;-33.992;18.480;2023-08-06T02:43:10;40.65;;;16.48;;
37379;SDS011;23252;-33.992;18.480;2023-08-06T02:45:38;43.78;;;14.77;;
37379;SDS011;23252;-33.992;18.480;2023-08-06T02:48:04;38.63;;;15.90;;
37379;SDS011;23252;-33.992;18.480;2023-08-06T02:50:31;41.95;;;15.68;;
37379;SDS011;23252;-33.992;18.480;2023-08-06T02:53:03;46.28;;;13.85;;
37379;SDS011;23252;-33.992;18.480;2023-08-06T02:55:29;34.08;;;14.45;;
37379;SDS011;23252;-33.992;18.480;2023-08-06T02:57:56;38.00;;;15.45;;
37379;SDS011;23252;-33.992;18.480;2023-08-06T03:00:22;42.47;;;15.85;;
37379;SDS011;23252;-33.992;18.480;2023-08-06T03:02:49;42.08;;;14.68;;
37379;SDS011;23252;-33.992;18.480;2023-08-06T03:05:15;37.55;;;14.48;;
37379;SDS011;23252;-33.992;18.480;2023-08-06T03:07:42;41.23;;;16.03;;
37379;SDS011;23252;-33.992;18.480;2023-08-06T03:10:08;52.22;;;13.77;;
37379;SDS011;23252;-33.992;18.480;2023-08-06T03:12:35;42.72;;;12.95;;
37379;SDS011;23252;-33.992;18.480;2023-08-06T03:15:02;43.50;;;12.45;;
37379;SDS011;23252;-33.992;18.480;2023-08-06T03:17:28;46.50;;;11.55;;
37379;SDS011;23252;-33.992;18.480;2023-08-06T03:19:55;35.25;;;9.80;;
37379;SDS011;23252;-33.992;18.480;2023-08-06T03:22:21;47.92;;;10.32;;
37379;SDS011;23252;-33.992;18.480;2023-08-06T03:24:50;52.13;;;12.18;;
37379;SDS011;23252;-33.992;18.480;2023-08-06T03:27:17;47.55;;;10.20;;
37379;SDS011;23252;-33.992;18.480;2023-08-06T03:29:43;39.90;;;10.25;;
37379;SDS011;23252;-33.992;18.480;2023-08-06T03:32:10;39.90;;;10.43;;
37379;SDS011;23252;-33.992;18.480;2023-08-06T03:34:36;38.55;;;10.00;;
37379;SDS011;23252;-33.992;18.480;2023-08-06T03:37:03;38.63;;;10.30;;
37379;SDS011;23252;-33.992;18.480;2023-08-06T03:39:29;40.20;;;9.80;;
37379;SDS011;23252;-33.992;18.480;2023-08-06T03:41:56;33.13;;;9.20;;
37379;SDS011;23252;-33.992;18.480;2023-08-06T03:44:22;41.97;;;8.57;;
37379;SDS011;23252;-33.992;18.480;2023-08-06T03:46:49;30.43;;;9.00;;
37379;SDS011;23252;-33.992;18.480;2023-08-06T03:49:15;30.70;;;7.90;;
37379;SDS011;23252;-33.992;18.480;2023-08-06T03:51:42;40.88;;;8.57;;
37379;SDS011;23252;-33.992;18.480;2023-08-06T03:54:08;36.40;;;8.38;;
37379;SDS011;23252;-33.992;18.480;2023-08-06T03:56:35;31.80;;;8.13;;
37379;SDS011;23252;-33.992;18.480;2023-08-06T03:59:01;35.08;;;8.57;;
37379;SDS011;23252;-33.992;18.480;2023-08-06T04:01:28;28.90;;;7.63;;
37379;SDS011;23252;-33.992;18.480;2023-08-06T04:03:54;32.47;;;8.77;;
37379;SDS011;23252;-33.992;18.480;2023-08-06T04:06:21;37.53;;;9.23;;
37379;SDS011;23252;-33.992;18.480;2023-08-06T04:08:47;33.00;;;9.88;;
37379;SDS011;23252;-33.992;18.480;2023-08-06T04:11:13;32.65;;;10.73;;
37379;SDS011;23252;-33.992;18.480;2023-08-06T04:13:43;37.38;;;9.85;;
37379;SDS011;23252;-33.992;18.480;2023-08-06T04:16:10;31.10;;;9.65;;
37379;SDS011;23252;-33.992;18.480;2023-08-06T04:18:36;25.67;;;9.17;;
37379;SDS011;23252;-33.992;18.480;2023-08-06T04:21:03;28.40;;;8.18;;
37379;SDS011;23252;-33.992;18.480;2023-08-06T04:23:29;20.17;;;7.55;;
37379;SDS011;23252;-33.992;18.480;2023-08-06T04:25:56;22.77;;;8.47;;
37379;SDS011;23252;-33.992;18.480;2023-08-06T04:30:49;24.95;;;8.00;;
37379;SDS011;23252;-33.992;18.480;2023-08-06T04:33:16;28.33;;;8.75;;
37379;SDS011;23252;-33.992;18.480;2023-08-06T04:35:42;26.70;;;8.43;;
37379;SDS011;23252;-33.992;18.480;2023-08-06T04:38:09;26.90;;;8.90;;
37379;SDS011;23252;-33.992;18.480;2023-08-06T04:40:35;26.92;;;8.13;;
37379;SDS011;23252;-33.992;18.480;2023-08-06T04:43:02;38.03;;;8.93;;
37379;SDS011;23252;-33.992;18.480;2023-08-06T04:45:29;31.27;;;9.00;;
37379;SDS011;23252;-33.992;18.480;2023-08-06T04:47:55;27.10;;;8.00;;
37379;SDS011;23252;-33.992;18.480;2023-08-06T04:50:22;30.10;;;10.05;;
37379;SDS011;23252;-33.992;18.480;2023-08-06T04:52:48;28.67;;;11.13;;
37379;SDS011;23252;-33.992;18.480;2023-08-06T04:55:14;30.45;;;11.90;;
37379;SDS011;23252;-33.992;18.480;2023-08-06T04:57:41;30.67;;;11.13;;
37379;SDS011;23252;-33.992;18.480;2023-08-06T05:00:08;34.60;;;11.18;;
37379;SDS011;23252;-33.992;18.480;2023-08-06T05:02:34;21.17;;;9.35;;
37379;SDS011;23252;-33.992;18.480;2023-08-06T05:05:03;21.35;;;8.25;;
37379;SDS011;23252;-33.992;18.480;2023-08-06T05:07:30;24.00;;;9.07;;
37379;SDS011;23252;-33.992;18.480;2023-08-06T05:09:56;32.53;;;9.43;;
37379;SDS011;23252;-33.992;18.480;2023-08-06T05:12:23;26.48;;;8.20;;
37379;SDS011;23252;-33.992;18.480;2023-08-06T05:14:49;29.35;;;6.45;;
37379;SDS011;23252;-33.992;18.480;2023-08-06T05:17:16;18.67;;;7.25;;
37379;SDS011;23252;-33.992;18.480;2023-08-06T05:19:42;22.10;;;6.67;;
37379;SDS011;23252;-33.992;18.480;2023-08-06T05:22:09;25.25;;;8.30;;
37379;SDS011;23252;-33.992;18.480;2023-08-06T05:24:35;27.93;;;8.93;;
37379;SDS011;23252;-33.992;18.480;2023-08-06T05:27:02;26.73;;;8.48;;
37379;SDS011;23252;-33.992;18.480;2023-08-06T05:29:28;30.15;;;8.43;;
37379;SDS011;23252;-33.992;18.480;2023-08-06T05:31:55;24.75;;;8.13;;
37379;SDS011;23252;-33.992;18.480;2023-08-06T05:34:21;22.83;;;5.95;;
37379;SDS011;23252;-33.992;18.480;2023-08-06T05:36:48;16.27;;;5.95;;
37379;SDS011;23252;-33.992;18.480;2023-08-06T05:39:14;15.85;;;6.03;;
37379;SDS011;23252;-33.992;18.480;2023-08-06T05:41:41;16.83;;;5.87;;
37379;SDS011;23252;-33.992;18.480;2023-08-06T05:44:07;19.67;;;5.65;;
37379;SDS011;23252;-33.992;18.480;2023-08-06T05:46:33;18.63;;;6.35;;
37379;SDS011;23252;-33.992;18.480;2023-08-06T05:49:00;12.85;;;5.25;;
37379;SDS011;23252;-33.992;18.480;2023-08-06T05:51:26;14.88;;;5.82;;
37379;SDS011;23252;-33.992;18.480;2023-08-06T05:53:53;28.75;;;5.93;;
37379;SDS011;23252;-33.992;18.480;2023-08-06T05:56:20;19.02;;;6.00;;
37379;SDS011;23252;-33.992;18.480;2023-08-06T05:58:46;19.77;;;5.22;;
37379;SDS011;23252;-33.992;18.480;2023-08-06T06:01:14;23.13;;;5.15;;
37379;SDS011;23252;-33.992;18.480;2023-08-06T06:03:40;16.20;;;5.50;;
37379;SDS011;23252;-33.992;18.480;2023-08-06T06:06:07;20.35;;;5.20;;
37379;SDS011;23252;-33.992;18.480;2023-08-06T06:08:33;13.63;;;4.90;;
37379;SDS011;23252;-33.992;18.480;2023-08-06T06:11:00;20.53;;;6.03;;
37379;SDS011;23252;-33.992;18.480;2023-08-06T06:13:26;15.68;;;5.25;;
37379;SDS011;23252;-33.992;18.480;2023-08-06T06:15:56;17.33;;;4.90;;
37379;SDS011;23252;-33.992;18.480;2023-08-06T06:18:23;17.80;;;4.72;;
37379;SDS011;23252;-33.992;18.480;2023-08-06T06:20:49;17.60;;;5.20;;
37379;SDS011;23252;-33.992;18.480;2023-08-06T06:23:16;11.55;;;5.05;;
37379;SDS011;23252;-33.992;18.480;2023-08-06T06:25:43;21.67;;;5.27;;
37379;SDS011;23252;-33.992;18.480;2023-08-06T06:28:12;14.75;;;5.10;;
37379;SDS011;23252;-33.992;18.480;2023-08-06T06:30:40;14.63;;;4.83;;
37379;SDS011;23252;-33.992;18.480;2023-08-06T06:33:07;21.15;;;5.22;;
37379;SDS011;23252;-33.992;18.480;2023-08-06T06:35:34;12.73;;;4.47;;
37379;SDS011;23252;-33.992;18.480;2023-08-06T06:38:00;14.30;;;4.57;;
37379;SDS011;23252;-33.992;18.480;2023-08-06T06:40:27;15.38;;;4.90;;
37379;SDS011;23252;-33.992;18.480;2023-08-06T06:42:54;15.03;;;5.30;;
37379;SDS011;23252;-33.992;18.480;2023-08-06T06:45:21;19.65;;;5.78;;
37379;SDS011;23252;-33.992;18.480;2023-08-06T06:47:47;23.35;;;7.53;;
37379;SDS011;23252;-33.992;18.480;2023-08-06T06:50:13;19.87;;;6.20;;
37379;SDS011;23252;-33.992;18.480;2023-08-06T06:52:40;17.70;;;7.72;;
37379;SDS011;23252;-33.992;18.480;2023-08-06T06:55:07;17.15;;;5.88;;
37379;SDS011;23252;-33.992;18.480;2023-08-06T06:57:34;22.58;;;5.90;;
37379;SDS011;23252;-33.992;18.480;2023-08-06T07:00:00;17.58;;;6.30;;
37379;SDS011;23252;-33.992;18.480;2023-08-06T07:02:27;18.30;;;6.37;;
37379;SDS011;23252;-33.992;18.480;2023-08-06T07:04:53;14.10;;;3.95;;
37379;SDS011;23252;-33.992;18.480;2023-08-06T07:07:20;12.07;;;4.30;;
37379;SDS011;23252;-33.992;18.480;2023-08-06T07:09:46;20.85;;;4.50;;
37379;SDS011;23252;-33.992;18.480;2023-08-06T07:12:13;13.38;;;4.55;;
37379;SDS011;23252;-33.992;18.480;2023-08-06T07:14:39;12.97;;;4.53;;
37379;SDS011;23252;-33.992;18.480;2023-08-06T07:17:06;13.60;;;4.93;;
37379;SDS011;23252;-33.992;18.480;2023-08-06T07:19:33;12.52;;;5.00;;
37379;SDS011;23252;-33.992;18.480;2023-08-06T07:21:59;16.60;;;4.30;;
37379;SDS011;23252;-33.992;18.480;2023-08-06T07:24:26;16.52;;;4.90;;
37379;SDS011;23252;-33.992;18.480;2023-08-06T07:26:52;12.93;;;4.13;;
37379;SDS011;23252;-33.992;18.480;2023-08-06T07:29:19;10.27;;;3.67;;
37379;SDS011;23252;-33.992;18.480;2023-08-06T07:31:47;13.60;;;3.92;;
37379;SDS011;23252;-33.992;18.480;2023-08-06T07:34:15;16.05;;;4.07;;
37379;SDS011;23252;-33.992;18.480;2023-08-06T07:36:43;15.55;;;5.15;;
37379;SDS011;23252;-33.992;18.480;2023-08-06T07:39:10;14.48;;;4.55;;
37379;SDS011;23252;-33.992;18.480;2023-08-06T07:41:37;19.70;;;3.87;;
37379;SDS011;23252;-33.992;18.480;2023-08-06T07:44:04;14.82;;;4.30;;
37379;SDS011;23252;-33.992;18.480;2023-08-06T07:46:30;21.37;;;4.47;;
37379;SDS011;23252;-33.992;18.480;2023-08-06T07:48:57;16.10;;;3.77;;
37379;SDS011;23252;-33.992;18.480;2023-08-06T07:51:23;14.85;;;4.07;;
37379;SDS011;23252;-33.992;18.480;2023-08-06T07:53:50;12.00;;;4.23;;
37379;SDS011;23252;-33.992;18.480;2023-08-06T07:56:16;15.40;;;3.80;;
37379;SDS011;23252;-33.992;18.480;2023-08-06T07:58:43;16.15;;;4.57;;
37379;SDS011;23252;-33.992;18.480;2023-08-06T08:01:09;14.77;;;4.25;;
37379;SDS011;23252;-33.992;18.480;2023-08-06T08:03:36;16.88;;;3.67;;
37379;SDS011;23252;-33.992;18.480;2023-08-06T08:06:02;10.98;;;3.38;;
37379;SDS011;23252;-33.992;18.480;2023-08-06T08:08:29;11.40;;;4.00;;
37379;SDS011;23252;-33.992;18.480;2023-08-06T08:10:55;9.73;;;3.15;;
37379;SDS011;23252;-33.992;18.480;2023-08-06T08:13:25;12.60;;;3.15;;
37379;SDS011;23252;-33.992;18.480;2023-08-06T08:15:56;18.10;;;3.70;;
37379;SDS011;23252;-33.992;18.480;2023-08-06T08:18:23;12.15;;;3.10;;
37379;SDS011;23252;-33.992;18.480;2023-08-06T08:20:50;7.47;;;2.80;;
37379;SDS011;23252;-33.992;18.480;2023-08-06T08:23:17;9.57;;;2.53;;
37379;SDS011;23252;-33.992;18.480;2023-08-06T08:25:43;7.28;;;2.60;;
37379;SDS011;23252;-33.992;18.480;2023-08-06T08:28:10;10.45;;;3.15;;
37379;SDS011;23252;-33.992;18.480;2023-08-06T08:30:36;9.17;;;2.60;;
37379;SDS011;23252;-33.992;18.480;2023-08-06T08:33:03;7.35;;;3.33;;
37379;SDS011;23252;-33.992;18.480;2023-08-06T08:35:29;11.17;;;3.10;;
37379;SDS011;23252;-33.992;18.480;2023-08-06T08:37:56;15.30;;;3.72;;
37379;SDS011;23252;-33.992;18.480;2023-08-06T08:40:22;11.07;;;3.30;;
37379;SDS011;23252;-33.992;18.480;2023-08-06T08:42:57;13.77;;;3.08;;
37379;SDS011;23252;-33.992;18.480;2023-08-06T08:45:26;14.23;;;2.97;;
37379;SDS011;23252;-33.992;18.480;2023-08-06T08:47:54;11.70;;;2.50;;
37379;SDS011;23252;-33.992;18.480;2023-08-06T08:50:21;12.90;;;3.17;;
37379;SDS011;23252;-33.992;18.480;2023-08-06T08:52:48;14.07;;;4.10;;
37379;SDS011;23252;-33.992;18.480;2023-08-06T08:55:17;13.68;;;3.05;;
37379;SDS011;23252;-33.992;18.480;2023-08-06T08:57:46;12.15;;;3.00;;
37379;SDS011;23252;-33.992;18.480;2023-08-06T09:00:13;11.20;;;2.60;;
37379;SDS011;23252;-33.992;18.480;2023-08-06T09:02:39;11.27;;;2.85;;
37379;SDS011;23252;-33.992;18.480;2023-08-06T09:05:07;9.07;;;2.85;;
37379;SDS011;23252;-33.992;18.480;2023-08-06T09:07:38;11.90;;;2.72;;
37379;SDS011;23252;-33.992;18.480;2023-08-06T09:10:11;11.10;;;3.20;;
37379;SDS011;23252;-33.992;18.480;2023-08-06T09:12:43;7.95;;;2.60;;
37379;SDS011;23252;-33.992;18.480;2023-08-06T09:15:10;10.80;;;2.40;;
37379;SDS011;23252;-33.992;18.480;2023-08-06T09:17:37;9.57;;;2.40;;
37379;SDS011;23252;-33.992;18.480;2023-08-06T09:20:12;13.43;;;2.42;;
37379;SDS011;23252;-33.992;18.480;2023-08-06T09:22:40;10.23;;;2.85;;
37379;SDS011;23252;-33.992;18.480;2023-08-06T09:25:07;16.10;;;3.03;;
37379;SDS011;23252;-33.992;18.480;2023-08-06T09:27:38;9.48;;;2.53;;
37379;SDS011;23252;-33.992;18.480;2023-08-06T09:30:08;9.67;;;2.77;;
37379;SDS011;23252;-33.992;18.480;2023-08-06T09:32:47;12.63;;;2.53;;
37379;SDS011;23252;-33.992;18.480;2023-08-06T09:35:17;8.88;;;2.40;;
37379;SDS011;23252;-33.992;18.480;2023-08-06T09:37:45;9.82;;;2.38;;
37379;SDS011;23252;-33.992;18.480;2023-08-06T09:40:32;9.07;;;2.47;;
37379;SDS011;23252;-33.992;18.480;2023-08-06T09:42:58;12.60;;;2.55;;
37379;SDS011;23252;-33.992;18.480;2023-08-06T09:45:32;16.95;;;2.70;;
37379;SDS011;23252;-33.992;18.480;2023-08-06T09:48:04;13.02;;;2.72;;
37379;SDS011;23252;-33.992;18.480;2023-08-06T09:50:33;10.48;;;2.80;;
37379;SDS011;23252;-33.992;18.480;2023-08-06T09:53:02;8.50;;;2.60;;
37379;SDS011;23252;-33.992;18.480;2023-08-06T09:55:30;11.88;;;3.33;;
37379;SDS011;23252;-33.992;18.480;2023-08-06T10:00:24;11.27;;;2.42;;
37379;SDS011;23252;-33.992;18.480;2023-08-06T10:02:51;8.60;;;2.72;;
37379;SDS011;23252;-33.992;18.480;2023-08-06T10:05:22;11.45;;;2.47;;
37379;SDS011;23252;-33.992;18.480;2023-08-06T10:07:49;9.70;;;2.28;;
37379;SDS011;23252;-33.992;18.480;2023-08-06T10:10:16;9.23;;;2.67;;
37379;SDS011;23252;-33.992;18.480;2023-08-06T10:12:46;11.55;;;3.05;;
37379;SDS011;23252;-33.992;18.480;2023-08-06T10:15:17;13.07;;;3.00;;
37379;SDS011;23252;-33.992;18.480;2023-08-06T10:17:48;10.63;;;2.42;;
37379;SDS011;23252;-33.992;18.480;2023-08-06T10:20:18;8.70;;;2.42;;
37379;SDS011;23252;-33.992;18.480;2023-08-06T10:22:46;12.98;;;2.35;;
37379;SDS011;23252;-33.992;18.480;2023-08-06T10:25:26;12.02;;;2.70;;
37379;SDS011;23252;-33.992;18.480;2023-08-06T10:27:58;10.90;;;2.55;;
37379;SDS011;23252;-33.992;18.480;2023-08-06T10:30:31;10.27;;;2.78;;
37379;SDS011;23252;-33.992;18.480;2023-08-06T10:32:59;10.93;;;2.65;;
37379;SDS011;23252;-33.992;18.480;2023-08-06T10:38:10;10.20;;;2.83;;
37379;SDS011;23252;-33.992;18.480;2023-08-06T10:40:52;11.88;;;3.33;;
37379;SDS011;23252;-33.992;18.480;2023-08-06T10:43:37;8.50;;;2.72;;
37379;SDS011;23252;-33.992;18.480;2023-08-06T10:46:09;9.67;;;2.73;;
37379;SDS011;23252;-33.992;18.480;2023-08-06T10:48:39;10.10;;;2.35;;
37379;SDS011;23252;-33.992;18.480;2023-08-06T10:51:09;11.40;;;2.83;;
37379;SDS011;23252;-33.992;18.480;2023-08-06T10:53:37;10.40;;;2.40;;
37379;SDS011;23252;-33.992;18.480;2023-08-06T10:56:18;7.10;;;2.53;;
37379;SDS011;23252;-33.992;18.480;2023-08-06T10:58:48;10.77;;;2.45;;
37379;SDS011;23252;-33.992;18.480;2023-08-06T11:01:16;10.23;;;2.78;;
37379;SDS011;23252;-33.992;18.480;2023-08-06T11:03:44;11.18;;;2.95;;
37379;SDS011;23252;-33.992;18.480;2023-08-06T11:06:16;11.93;;;2.58;;
37379;SDS011;23252;-33.992;18.480;2023-08-06T11:08:50;9.57;;;2.60;;
37379;SDS011;23252;-33.992;18.480;2023-08-06T11:11:20;12.68;;;3.03;;
37379;SDS011;23252;-33.992;18.480;2023-08-06T11:13:49;8.07;;;2.53;;
37379;SDS011;23252;-33.992;18.480;2023-08-06T11:16:17;6.63;;;2.10;;
37379;SDS011;23252;-33.992;18.480;2023-08-06T11:18:45;8.68;;;2.20;;
37379;SDS011;23252;-33.992;18.480;2023-08-06T11:21:12;9.57;;;2.10;;
37379;SDS011;23252;-33.992;18.480;2023-08-06T11:23:40;12.57;;;2.70;;
37379;SDS011;23252;-33.992;18.480;2023-08-06T11:26:07;10.02;;;2.63;;
37379;SDS011;23252;-33.992;18.480;2023-08-06T11:28:34;6.97;;;2.10;;
37379;SDS011;23252;-33.992;18.480;2023-08-06T11:31:00;7.13;;;1.95;;
37379;SDS011;23252;-33.992;18.480;2023-08-06T11:33:28;9.05;;;2.22;;
37379;SDS011;23252;-33.992;18.480;2023-08-06T11:35:55;10.52;;;2.45;;
37379;SDS011;23252;-33.992;18.480;2023-08-06T11:38:29;13.60;;;2.65;;
37379;SDS011;23252;-33.992;18.480;2023-08-06T11:40:56;5.60;;;1.70;;
37379;SDS011;23252;-33.992;18.480;2023-08-06T11:43:23;11.73;;;2.17;;
37379;SDS011;23252;-33.992;18.480;2023-08-06T11:45:49;12.30;;;2.67;;
37379;SDS011;23252;-33.992;18.480;2023-08-06T11:48:19;8.15;;;2.53;;
37379;SDS011;23252;-33.992;18.480;2023-08-06T11:50:45;3.80;;;1.90;;
37379;SDS011;23252;-33.992;18.480;2023-08-06T11:53:13;6.18;;;2.20;;
37379;SDS011;23252;-33.992;18.480;2023-08-06T11:55:40;8.30;;;2.25;;
37379;SDS011;23252;-33.992;18.480;2023-08-06T11:58:08;5.68;;;2.45;;
37379;SDS011;23252;-33.992;18.480;2023-08-06T12:00:39;8.25;;;2.53;;
37379;SDS011;23252;-33.992;18.480;2023-08-06T12:03:07;7.50;;;2.38;;
37379;SDS011;23252;-33.992;18.480;2023-08-06T12:05:36;6.97;;;2.63;;
37379;SDS011;23252;-33.992;18.480;2023-08-06T12:08:04;5.97;;;2.35;;
37379;SDS011;23252;-33.992;18.480;2023-08-06T12:10:31;6.20;;;2.70;;
37379;SDS011;23252;-33.992;18.480;2023-08-06T12:12:58;10.50;;;2.38;;
37379;SDS011;23252;-33.992;18.480;2023-08-06T12:15:25;9.27;;;2.20;;
37379;SDS011;23252;-33.992;18.480;2023-08-06T12:17:52;5.32;;;2.25;;
37379;SDS011;23252;-33.992;18.480;2023-08-06T12:20:19;9.30;;;2.38;;
37379;SDS011;23252;-33.992;18.480;2023-08-06T12:22:46;6.03;;;2.40;;
37379;SDS011;23252;-33.992;18.480;2023-08-06T12:25:12;5.65;;;2.58;;
37379;SDS011;23252;-33.992;18.480;2023-08-06T12:27:43;5.47;;;2.25;;
37379;SDS011;23252;-33.992;18.480;2023-08-06T12:30:11;6.50;;;2.20;;
37379;SDS011;23252;-33.992;18.480;2023-08-06T12:32:38;5.75;;;2.50;;
37379;SDS011;23252;-33.992;18.480;2023-08-06T12:35:05;7.18;;;2.72;;
37379;SDS011;23252;-33.992;18.480;2023-08-06T12:37:32;4.93;;;2.40;;
37379;SDS011;23252;-33.992;18.480;2023-08-06T12:39:59;6.53;;;2.22;;
37379;SDS011;23252;-33.992;18.480;2023-08-06T12:42:26;6.30;;;2.45;;
37379;SDS011;23252;-33.992;18.480;2023-08-06T12:44:52;4.57;;;2.10;;
37379;SDS011;23252;-33.992;18.480;2023-08-06T12:47:19;6.35;;;2.55;;
37379;SDS011;23252;-33.992;18.480;2023-08-06T12:49:45;5.25;;;2.28;;
37379;SDS011;23252;-33.992;18.480;2023-08-06T12:52:12;5.70;;;2.17;;
37379;SDS011;23252;-33.992;18.480;2023-08-06T12:54:40;6.15;;;2.25;;
37379;SDS011;23252;-33.992;18.480;2023-08-06T12:57:07;5.82;;;2.10;;
37379;SDS011;23252;-33.992;18.480;2023-08-06T12:59:33;6.63;;;3.00;;
37379;SDS011;23252;-33.992;18.480;2023-08-06T13:02:02;4.45;;;1.90;;
37379;SDS011;23252;-33.992;18.480;2023-08-06T13:04:28;3.40;;;1.88;;
37379;SDS011;23252;-33.992;18.480;2023-08-06T13:09:22;4.17;;;2.10;;
37379;SDS011;23252;-33.992;18.480;2023-08-06T13:11:48;6.10;;;2.20;;
37379;SDS011;23252;-33.992;18.480;2023-08-06T13:14:15;3.85;;;1.67;;
37379;SDS011;23252;-33.992;18.480;2023-08-06T13:16:42;3.53;;;1.50;;
37379;SDS011;23252;-33.992;18.480;2023-08-06T13:19:10;3.80;;;1.95;;
37379;SDS011;23252;-33.992;18.480;2023-08-06T13:24:08;7.60;;;2.22;;
37379;SDS011;23252;-33.992;18.480;2023-08-06T13:26:34;6.70;;;2.25;;
37379;SDS011;23252;-33.992;18.480;2023-08-06T13:29:01;5.07;;;1.60;;
37379;SDS011;23252;-33.992;18.480;2023-08-06T13:31:28;6.47;;;1.60;;
37379;SDS011;23252;-33.992;18.480;2023-08-06T13:33:55;7.70;;;1.83;;
37379;SDS011;23252;-33.992;18.480;2023-08-06T13:36:23;9.90;;;2.00;;
37379;SDS011;23252;-33.992;18.480;2023-08-06T13:38:51;5.57;;;2.00;;
37379;SDS011;23252;-33.992;18.480;2023-08-06T13:41:18;4.45;;;1.55;;
37379;SDS011;23252;-33.992;18.480;2023-08-06T13:43:44;4.68;;;2.03;;
37379;SDS011;23252;-33.992;18.480;2023-08-06T13:46:11;7.05;;;2.25;;
37379;SDS011;23252;-33.992;18.480;2023-08-06T13:48:42;6.70;;;2.53;;
37379;SDS011;23252;-33.992;18.480;2023-08-06T13:51:09;6.35;;;2.28;;
37379;SDS011;23252;-33.992;18.480;2023-08-06T13:53:37;5.65;;;2.10;;
37379;SDS011;23252;-33.992;18.480;2023-08-06T13:56:04;5.72;;;1.65;;
37379;SDS011;23252;-33.992;18.480;2023-08-06T13:58:32;5.28;;;1.88;;
37379;SDS011;23252;-33.992;18.480;2023-08-06T14:00:59;4.55;;;1.65;;
37379;SDS011;23252;-33.992;18.480;2023-08-06T14:03:26;4.22;;;2.03;;
37379;SDS011;23252;-33.992;18.480;2023-08-06T14:05:52;5.30;;;1.95;;
37379;SDS011;23252;-33.992;18.480;2023-08-06T14:08:22;2.42;;;1.48;;
37379;SDS011;23252;-33.992;18.480;2023-08-06T14:10:53;6.40;;;1.63;;
37379;SDS011;23252;-33.992;18.480;2023-08-06T14:13:21;5.22;;;1.35;;
37379;SDS011;23252;-33.992;18.480;2023-08-06T14:15:47;3.42;;;1.70;;
37379;SDS011;23252;-33.992;18.480;2023-08-06T14:18:14;4.40;;;1.80;;
37379;SDS011;23252;-33.992;18.480;2023-08-06T14:20:41;6.55;;;1.85;;
37379;SDS011;23252;-33.992;18.480;2023-08-06T14:23:11;8.88;;;2.20;;
37379;SDS011;23252;-33.992;18.480;2023-08-06T14:25:38;6.95;;;1.90;;
37379;SDS011;23252;-33.992;18.480;2023-08-06T14:28:05;5.90;;;2.60;;
37379;SDS011;23252;-33.992;18.480;2023-08-06T14:30:32;4.68;;;2.10;;
37379;SDS011;23252;-33.992;18.480;2023-08-06T14:35:26;6.68;;;2.45;;
37379;SDS011;23252;-33.992;18.480;2023-08-06T14:37:52;5.38;;;2.22;;
37379;SDS011;23252;-33.992;18.480;2023-08-06T14:40:19;5.80;;;1.87;;
37379;SDS011;23252;-33.992;18.480;2023-08-06T14:42:45;3.97;;;1.50;;